OSSIPEE R NR EFFINGHAM: From 06/27/2020 00:00 to 07/13/2020 00:00

Date STAGE [FT] OBSERVED DAM ELEVATION FLOW [CFS] PRECIPITATION INCREMENT [IN] PRECIPITATION TOTAL [IN] AIR TEMPERATURE [DEGF]
07/11/2020 17:00 3.71 407.34 679.9 -- -- 77.9
07/11/2020 16:00 3.70 407.37 676.0 -- -- 78.8
07/11/2020 15:00 3.70 407.35 676.0 0.02 -- 83.5
07/11/2020 14:00 3.70 407.35 676.0 0.03 -- 81.5
07/11/2020 13:00 3.61 407.35 641.7 0.00 -- 78.3
07/11/2020 12:00 1.40 407.54 70.7 0.00 -- 74.5
07/11/2020 11:00 1.40 407.53 70.7 0.00 -- 73.2
07/11/2020 10:00 1.41 407.51 71.8 0.00 -- 71.7
07/11/2020 09:00 1.41 407.51 71.8 0.01 -- 71.0
07/11/2020 08:00 1.41 407.52 71.8 0.01 -- 70.7
07/11/2020 07:00 1.41 407.53 71.8 0.00 -- 70.6
07/11/2020 06:00 1.41 407.53 71.8 0.00 -- 70.1
07/11/2020 05:00 1.41 407.52 71.8 0.00 -- 69.9
07/11/2020 04:00 1.40 407.51 70.7 0.01 -- 70.1
07/11/2020 03:00 1.40 407.50 70.7 0.05 -- 69.8
07/11/2020 02:00 1.40 407.50 70.7 0.04 -- 70.1
07/11/2020 01:00 1.40 407.50 70.7 0.00 -- 70.3
07/11/2020 00:00 1.40 407.50 70.7 0.01 -- 71.1
07/10/2020 23:00 1.40 407.50 70.7 0.00 -- 71.9
07/10/2020 22:00 1.40 407.50 70.7 0.00 -- 73.4
07/10/2020 21:00 1.40 407.49 70.7 0.00 -- 74.8
07/10/2020 20:00 1.40 407.48 70.7 0.00 -- 76.7
07/10/2020 19:00 1.40 407.48 70.7 0.00 -- 78.8
07/10/2020 18:00 1.40 407.48 70.7 0.00 -- 81.2
07/10/2020 17:00 1.40 407.48 70.7 0.00 -- 83.7
07/10/2020 16:00 1.40 407.48 70.7 0.00 -- 84.7
07/10/2020 15:00 1.40 407.48 70.7 0.00 -- 84.8
07/10/2020 14:00 1.40 407.48 70.7 0.00 -- 84.8
07/10/2020 13:00 1.40 407.47 70.7 0.00 -- 83.8
07/10/2020 12:00 1.40 407.47 70.7 0.00 -- 82.8
07/10/2020 11:00 1.40 407.47 70.7 0.00 -- 78.3
07/10/2020 10:00 1.40 407.47 70.7 0.00 -- 74.7
07/10/2020 09:00 1.40 407.46 70.7 0.00 -- 70.7
07/10/2020 08:00 1.40 407.46 70.7 0.00 -- 69.6
07/10/2020 07:00 1.40 407.44 70.7 0.00 -- 69.7
07/10/2020 06:00 1.40 407.46 70.7 0.00 -- 69.6
07/10/2020 05:00 1.40 407.46 70.7 0.00 -- 69.2
07/10/2020 04:00 1.40 407.45 70.7 0.00 -- 70.0
07/10/2020 03:00 1.40 407.46 70.7 0.00 -- 70.8
07/10/2020 02:00 1.40 407.45 70.7 0.00 -- 71.7
07/10/2020 01:00 1.40 407.44 70.7 0.00 -- 72.9
07/10/2020 00:00 1.40 407.44 70.7 0.00 0.01 74.4
07/09/2020 23:00 1.40 407.43 70.7 0.00 -- 76.1
07/09/2020 22:00 1.40 407.42 70.7 0.00 -- 77.6
07/09/2020 21:00 1.40 407.42 70.7 0.00 -- 80.2
07/09/2020 20:00 1.40 407.43 70.7 0.00 -- 82.6
07/09/2020 19:00 1.40 407.43 70.7 0.00 -- 86.1
07/09/2020 18:00 1.40 407.43 70.7 0.00 -- 88.3
07/09/2020 17:00 1.40 407.43 70.7 0.00 -- 87.3
07/09/2020 16:00 1.40 407.42 70.7 0.00 -- 86.9
07/09/2020 15:00 1.40 407.41 70.7 0.00 -- 85.2
07/09/2020 14:00 1.40 407.41 70.7 0.00 -- 83.8
07/09/2020 13:00 1.40 407.42 70.7 0.00 -- 81.1
07/09/2020 12:00 1.40 407.41 70.7 0.00 -- 78.1
07/09/2020 11:00 1.40 407.41 70.7 0.00 -- 74.4
07/09/2020 10:00 1.40 407.40 70.7 0.00 -- 68.6
07/09/2020 09:00 1.40 407.40 70.7 0.00 -- 66.0
07/09/2020 08:00 1.40 407.40 70.7 0.00 -- 65.6
07/09/2020 07:00 1.40 407.39 70.7 0.00 -- 65.3
07/09/2020 06:00 1.40 407.39 70.7 0.00 -- 64.8
07/09/2020 05:00 1.40 407.39 70.7 0.00 -- 64.5
07/09/2020 04:00 1.40 407.39 70.7 0.00 -- 64.3
07/09/2020 03:00 1.40 407.37 70.7 0.00 -- 63.7
07/09/2020 02:00 1.40 407.37 70.7 0.00 -- 63.7
07/09/2020 01:00 1.40 407.37 70.7 0.00 -- 64.4
07/09/2020 00:00 1.40 407.37 70.7 0.00 0.00 65.0
07/08/2020 23:00 1.40 407.37 70.7 0.01 -- 65.9
07/08/2020 22:00 1.40 407.37 70.7 0.00 -- 67.1
07/08/2020 21:00 1.40 407.36 70.7 0.00 -- 67.3
07/08/2020 20:00 1.41 407.32 71.8 0.00 -- 70.0
07/08/2020 19:00 1.40 407.33 70.7 0.23 -- 75.5
07/08/2020 18:00 1.40 407.34 70.7 0.17 -- 75.8
07/08/2020 17:00 1.40 407.32 70.7 0.00 -- 83.1
07/08/2020 16:00 1.40 407.33 70.7 0.03 -- 83.0
07/08/2020 15:00 1.40 407.33 70.7 0.00 -- 81.4
07/08/2020 14:00 1.40 407.30 70.7 0.00 -- 78.9
07/08/2020 13:00 1.40 407.31 70.7 0.00 -- 78.0
07/08/2020 12:00 1.40 407.30 70.7 0.00 -- 77.6
07/08/2020 11:00 1.40 407.31 70.7 0.00 -- 75.0
07/08/2020 10:00 1.39 407.31 69.6 0.00 -- 72.3
07/08/2020 09:00 1.39 407.29 69.6 0.00 -- 70.3
07/08/2020 08:00 1.39 407.29 69.6 0.00 -- 67.2
07/08/2020 07:00 1.39 407.28 69.6 0.00 -- 66.5
07/08/2020 06:00 1.39 407.28 69.6 0.00 -- 66.2
07/08/2020 05:00 1.39 407.29 69.6 0.00 -- 66.4
07/08/2020 04:00 1.39 407.28 69.6 0.00 -- 66.4
07/08/2020 03:00 1.39 407.29 69.6 0.00 -- 66.3
07/08/2020 02:00 1.39 407.27 69.6 0.00 -- 66.1
07/08/2020 01:00 1.39 407.27 69.6 0.00 -- 65.6
07/08/2020 00:00 1.39 407.28 69.6 0.00 0.44 66.7
07/07/2020 23:00 1.39 407.27 69.6 0.00 -- 67.3
07/07/2020 22:00 1.39 407.28 69.6 0.00 -- 68.8
07/07/2020 21:00 1.39 407.26 69.6 0.00 -- 71.7
07/07/2020 20:00 1.39 407.26 69.6 0.00 -- 74.4
07/07/2020 19:00 1.39 407.26 69.6 0.00 -- 76.9
07/07/2020 18:00 1.39 407.25 69.6 0.00 -- 78.0
07/07/2020 17:00 1.40 407.26 70.7 0.00 -- 78.9
07/07/2020 16:00 1.40 407.26 70.7 0.00 -- 79.2
07/07/2020 15:00 1.40 407.27 70.7 0.00 -- 78.4
07/07/2020 14:00 1.40 407.25 70.7 0.00 -- 77.5
07/07/2020 13:00 1.40 407.26 70.7 0.00 -- 76.7
07/07/2020 12:00 1.40 407.26 70.7 0.00 -- 75.8
07/07/2020 11:00 1.47 407.26 78.5 0.00 -- 73.1
07/07/2020 10:00 2.35 407.23 242.4 0.00 -- 68.8
07/07/2020 09:00 2.40 407.22 254.0 0.00 -- 63.9
07/07/2020 08:00 2.40 407.22 254.0 0.00 -- 58.4
07/07/2020 07:00 2.40 407.22 254.0 0.00 -- 54.5
07/07/2020 06:00 2.40 407.22 254.0 0.00 -- 54.4
07/07/2020 05:00 2.40 407.23 254.0 0.00 -- 54.8
07/07/2020 04:00 2.40 407.23 254.0 0.00 -- 55.9
07/07/2020 03:00 2.40 407.23 254.0 0.00 -- 57.8
07/07/2020 02:00 2.40 407.22 254.0 0.00 -- 58.8
07/07/2020 01:00 2.40 407.23 254.0 0.00 -- 61.3
07/07/2020 00:00 2.40 407.23 254.0 0.00 0.00 63.8
07/06/2020 23:00 2.40 407.23 254.0 0.00 -- 65.2
07/06/2020 22:00 2.40 407.23 254.0 0.00 -- 68.0
07/06/2020 21:00 2.40 407.21 254.0 0.00 -- 71.1
07/06/2020 20:00 2.40 407.22 254.0 0.00 -- 74.7
07/06/2020 19:00 2.40 407.23 254.0 0.00 -- 76.6
07/06/2020 18:00 2.40 407.25 254.0 0.00 -- 78.5
07/06/2020 17:00 2.40 407.26 254.0 0.00 -- 81.2
07/06/2020 16:00 2.40 407.24 254.0 0.00 -- 79.4
07/06/2020 15:00 2.40 407.24 254.0 0.00 -- 79.6
07/06/2020 14:00 2.40 407.24 254.0 0.00 -- 78.7
07/06/2020 13:00 2.40 407.25 254.0 0.00 -- 76.3
07/06/2020 12:00 2.40 407.25 254.0 0.00 -- 75.1
07/06/2020 11:00 2.40 407.24 254.0 0.00 -- 73.3
07/06/2020 10:00 2.41 407.25 256.3 0.00 -- 69.8
07/06/2020 09:00 2.41 407.25 256.3 0.00 -- 67.2
07/06/2020 08:00 2.41 407.24 256.3 0.00 -- 65.2
07/06/2020 07:00 2.41 407.24 256.3 0.00 -- 64.4
07/06/2020 06:00 2.41 407.24 256.3 0.00 -- 64.8
07/06/2020 05:00 2.41 407.25 256.3 0.00 -- 65.1
07/06/2020 04:00 2.41 407.24 256.3 0.00 -- 65.4
07/06/2020 03:00 2.41 407.25 256.3 0.01 -- 65.5
07/06/2020 02:00 2.41 407.24 256.3 0.00 -- 65.7
07/06/2020 01:00 2.41 407.25 256.3 0.00 -- 65.6
07/06/2020 00:00 2.41 407.25 256.3 0.00 0.01 65.8
07/05/2020 23:00 2.41 407.25 256.3 0.00 -- 66.0
07/05/2020 22:00 2.41 407.23 256.3 0.00 -- 67.3
07/05/2020 21:00 2.40 407.22 254.0 0.02 -- 68.5
07/05/2020 20:00 2.40 407.23 254.0 0.07 -- 70.3
07/05/2020 19:00 2.40 407.22 254.0 0.00 -- 71.7
07/05/2020 18:00 2.40 407.20 254.0 0.00 -- 74.7
07/05/2020 17:00 2.40 407.22 254.0 0.00 -- 76.2
07/05/2020 16:00 2.40 407.23 254.0 0.00 -- 78.1
07/05/2020 15:00 2.40 407.23 254.0 0.00 -- 79.5
07/05/2020 14:00 2.40 407.23 254.0 0.00 -- 79.3
07/05/2020 13:00 2.40 407.25 254.0 0.00 -- 76.8
07/05/2020 12:00 2.40 407.26 254.0 0.00 -- 73.2
07/05/2020 11:00 2.40 407.25 254.0 0.00 -- 67.4
07/05/2020 10:00 2.40 407.25 254.0 0.00 -- 65.7
07/05/2020 09:00 2.40 407.25 254.0 0.00 -- 64.8
07/05/2020 08:00 2.40 407.24 254.0 0.00 -- 64.1
07/05/2020 07:00 2.40 407.25 254.0 0.00 -- 63.7
07/05/2020 06:00 2.40 407.24 254.0 0.00 -- 63.9
07/05/2020 05:00 2.40 407.25 254.0 0.00 -- 63.6
07/05/2020 04:00 2.40 407.25 254.0 0.00 -- 63.6
07/05/2020 03:00 2.40 407.25 254.0 0.00 -- 64.0
07/05/2020 02:00 2.40 407.24 254.0 0.00 -- 64.0
07/05/2020 01:00 2.40 407.24 254.0 0.00 -- 63.8
07/05/2020 00:00 2.40 407.24 254.0 0.00 0.09 64.3
07/04/2020 23:00 2.40 407.23 254.0 0.00 -- 67.2
07/04/2020 22:00 2.40 407.24 254.0 0.00 -- 70.4
07/04/2020 21:00 2.40 407.23 254.0 0.00 -- 75.2
07/04/2020 20:00 2.40 407.23 254.0 0.00 -- 77.7
07/04/2020 19:00 2.40 407.24 254.0 0.00 -- 80.8
07/04/2020 18:00 2.40 407.23 254.0 0.00 -- 82.9
07/04/2020 17:00 2.40 407.26 254.0 0.00 -- 82.7
07/04/2020 16:00 2.40 407.25 254.0 0.00 -- 82.3
07/04/2020 15:00 2.41 407.26 256.3 0.00 -- 81.8
07/04/2020 14:00 2.41 407.25 256.3 0.00 -- 79.6
07/04/2020 13:00 2.41 407.25 256.3 0.00 -- 77.5
07/04/2020 12:00 2.41 407.25 256.3 0.00 -- 73.9
07/04/2020 11:00 2.41 407.25 256.3 0.00 -- 72.1
07/04/2020 10:00 2.41 407.23 256.3 0.00 -- 67.5
07/04/2020 09:00 2.41 407.23 256.3 0.00 -- 62.0
07/04/2020 08:00 2.41 407.23 256.3 0.00 -- 58.7
07/04/2020 07:00 2.41 407.23 256.3 0.00 -- 57.8
07/04/2020 06:00 2.41 407.23 256.3 0.00 -- 59.0
07/04/2020 05:00 2.41 407.22 256.3 0.00 -- 59.2
07/04/2020 04:00 2.41 407.22 256.3 0.00 -- 58.3
07/04/2020 03:00 2.41 407.23 256.3 0.00 -- 59.5
07/04/2020 02:00 2.41 407.22 256.3 0.00 -- 61.4
07/04/2020 01:00 2.41 407.21 256.3 0.00 -- 62.2
07/04/2020 00:00 2.41 407.22 256.3 0.00 0.00 62.5
07/03/2020 23:00 2.41 407.21 256.3 0.00 -- 62.8
07/03/2020 22:00 2.41 407.21 256.3 0.00 -- 63.6
07/03/2020 21:00 2.41 407.21 256.3 0.00 -- 64.8
07/03/2020 20:00 2.49 407.20 275.5 0.00 -- 65.5
07/03/2020 19:00 3.22 407.11 500.7 0.00 -- 67.7
07/03/2020 18:00 3.22 407.15 500.7 0.00 -- 69.5
07/03/2020 17:00 3.22 407.12 500.7 0.00 -- 71.2
07/03/2020 16:00 3.22 407.11 500.7 0.00 -- 72.0
07/03/2020 15:00 3.22 407.10 500.7 0.00 -- 68.9
07/03/2020 14:00 3.22 407.08 500.7 0.00 -- 69.5
07/03/2020 13:00 3.23 407.06 504.1 0.00 -- 70.5
07/03/2020 12:00 3.80 407.01 716.0 0.00 -- 67.2
07/03/2020 11:00 4.68 407.15 1117.8 0.00 -- 67.3
07/03/2020 10:00 4.68 406.69 1117.8 0.00 -- 68.8
07/03/2020 09:00 4.68 406.69 1117.8 0.00 -- 70.3
07/03/2020 08:00 4.69 406.71 1123.9 0.00 -- 70.2
07/03/2020 07:00 4.69 406.72 1123.9 0.00 -- 70.1
07/03/2020 06:00 4.69 406.71 1123.9 0.00 -- 70.5
07/03/2020 05:00 4.70 406.71 1130.0 0.00 -- 69.4
07/03/2020 04:00 4.71 406.77 1135.0 0.00 -- 69.8
07/03/2020 03:00 4.71 406.78 1135.0 0.00 -- 69.4
07/03/2020 02:00 4.71 406.79 1135.0 0.00 -- 71.1
07/03/2020 01:00 4.72 406.82 1139.9 0.00 -- 72.0
07/03/2020 00:00 4.72 406.83 1139.9 0.00 0.00 72.5
07/02/2020 23:00 4.72 406.83 1139.9 0.00 -- 73.7
07/02/2020 22:00 4.72 406.86 1139.9 0.00 -- 75.1
07/02/2020 21:00 4.73 406.86 1144.9 0.00 -- 77.4
07/02/2020 20:00 4.73 406.89 1144.9 0.00 -- 81.5
07/02/2020 19:00 4.74 406.93 1149.9 0.00 -- 84.4
07/02/2020 18:00 4.74 406.89 1149.9 0.00 -- 86.8
07/02/2020 17:00 4.75 406.91 1154.9 0.00 -- 87.0
07/02/2020 16:00 4.75 406.96 1154.9 0.00 -- 86.3
07/02/2020 15:00 4.75 406.98 1154.9 0.00 -- 84.9
07/02/2020 14:00 4.76 406.95 1159.9 0.00 -- 83.4
07/02/2020 13:00 4.76 406.99 1159.9 0.00 -- 81.9
07/02/2020 12:00 4.72 406.99 1139.9 0.00 -- 79.4
07/02/2020 11:00 4.47 407.15 1007.1 0.00 -- 72.6
07/02/2020 10:00 4.47 407.13 1007.1 0.00 -- 66.9
07/02/2020 09:00 4.47 407.14 1007.1 0.00 -- 64.3
07/02/2020 08:00 4.47 407.17 1007.1 0.00 -- 62.8
07/02/2020 07:00 4.48 407.15 1011.8 0.00 -- 62.1
07/02/2020 06:00 4.48 407.17 1011.8 0.00 -- 63.2
07/02/2020 05:00 4.48 407.19 1011.8 0.00 -- 63.8
07/02/2020 04:00 4.48 407.19 1011.8 0.00 -- 63.7
07/02/2020 03:00 4.48 407.19 1011.8 0.00 -- 63.9
07/02/2020 02:00 4.48 407.21 1011.8 0.00 -- 63.6
07/02/2020 01:00 4.48 407.22 1011.8 0.00 -- 63.4
07/02/2020 00:00 4.49 407.23 1016.6 0.00 0.00 63.6
07/01/2020 23:00 4.49 407.23 1016.6 0.00 -- 64.1
07/01/2020 22:00 4.49 407.21 1016.6 0.00 -- 64.7
07/01/2020 21:00 4.49 407.23 1016.6 0.00 -- 65.9
07/01/2020 20:00 4.49 407.24 1016.6 0.00 -- 66.0
07/01/2020 19:00 4.50 407.25 1021.4 0.00 -- 66.1
07/01/2020 18:00 4.49 407.24 1016.6 0.00 -- 73.5
07/01/2020 17:00 4.49 407.25 1016.6 0.23 -- 73.2
07/01/2020 16:00 4.49 407.25 1016.6 0.00 -- 73.5
07/01/2020 15:00 4.49 407.25 1016.6 0.00 -- 69.7
07/01/2020 14:00 4.49 407.26 1016.6 0.01 -- 73.7
07/01/2020 13:00 4.49 407.25 1016.6 0.02 -- 74.6
07/01/2020 12:00 4.49 407.38 1016.6 0.00 -- 72.3
07/01/2020 11:00 4.50 407.41 1021.4 0.00 -- 70.1
07/01/2020 10:00 4.49 407.42 1016.6 0.00 -- 67.5
07/01/2020 09:00 3.68 407.56 668.3 0.00 -- 67.0
07/01/2020 08:00 3.43 407.64 574.7 0.00 -- 65.6
07/01/2020 07:00 3.43 407.63 574.7 0.00 -- 64.8
07/01/2020 06:00 3.43 407.62 574.7 0.00 -- 64.9
07/01/2020 05:00 3.42 407.64 571.1 0.00 -- 64.7
07/01/2020 04:00 3.43 407.64 574.7 0.00 -- 65.1
07/01/2020 03:00 3.43 407.62 574.7 0.01 -- 65.5
07/01/2020 02:00 3.43 407.63 574.7 0.00 -- 65.9
07/01/2020 01:00 3.43 407.63 574.7 0.00 -- 66.1
07/01/2020 00:00 3.43 407.62 574.7 0.06 0.27 65.8
06/30/2020 23:00 3.43 407.62 574.7 0.06 -- 66.0
06/30/2020 22:00 3.44 407.60 578.3 0.01 -- 66.2
06/30/2020 21:00 3.42 407.57 571.1 0.11 -- 66.8
06/30/2020 20:00 3.42 407.58 571.1 0.36 -- 68.0
06/30/2020 19:00 3.42 407.57 571.1 0.00 -- 67.6
06/30/2020 18:00 3.42 407.57 571.1 0.00 -- 66.9
06/30/2020 17:00 3.42 407.57 571.1 0.03 -- 67.1
06/30/2020 16:00 3.42 407.56 571.1 0.06 -- 69.0
06/30/2020 15:00 3.42 407.57 571.1 0.03 -- 69.0
06/30/2020 14:00 3.42 407.57 571.1 0.07 -- 67.8
06/30/2020 13:00 3.42 407.56 571.1 0.02 -- 68.7
06/30/2020 12:00 3.42 407.56 571.1 0.01 -- 69.4
06/30/2020 11:00 3.42 407.57 571.1 0.01 -- 66.2
06/30/2020 10:00 3.43 407.58 574.7 0.00 -- 65.9
06/30/2020 09:00 3.43 407.57 574.7 0.10 -- 65.2
06/30/2020 08:00 3.42 407.57 571.1 0.24 -- 64.7
06/30/2020 07:00 3.42 407.56 571.1 0.15 -- 64.2
06/30/2020 06:00 3.42 407.56 571.1 0.14 -- 63.9
06/30/2020 05:00 3.42 407.57 571.1 0.00 -- 63.9
06/30/2020 04:00 3.42 407.58 571.1 0.01 -- 63.9
06/30/2020 03:00 3.42 407.58 571.1 0.00 -- 63.9
06/30/2020 02:00 3.42 407.58 571.1 0.00 -- 63.8
06/30/2020 01:00 3.42 407.59 571.1 0.00 -- 63.7
06/30/2020 00:00 3.42 407.59 571.1 0.00 1.47 63.5
06/29/2020 23:00 3.43 407.59 574.7 0.00 -- 64.1
06/29/2020 22:00 3.42 407.60 571.1 0.04 -- 64.3
06/29/2020 21:00 3.43 407.60 574.7 0.11 -- 64.5
06/29/2020 20:00 3.42 407.60 571.1 0.00 -- 64.6
06/29/2020 19:00 3.42 407.60 571.1 0.05 -- 64.8
06/29/2020 18:00 3.42 407.60 571.1 0.01 -- 66.0
06/29/2020 17:00 3.42 407.62 571.1 0.02 -- 65.1
06/29/2020 16:00 3.42 407.62 571.1 0.00 -- 65.0
06/29/2020 15:00 3.42 407.60 571.1 0.03 -- 66.0
06/29/2020 14:00 3.41 407.63 567.5 0.04 -- 66.8
06/29/2020 13:00 3.30 407.63 528.0 0.01 -- 65.8
06/29/2020 12:00 1.42 407.75 72.9 0.00 -- 66.3
06/29/2020 11:00 1.43 407.75 74.0 0.01 -- 65.1
06/29/2020 10:00 1.42 407.75 72.9 0.05 -- 65.4
06/29/2020 09:00 1.42 407.74 72.9 0.16 -- 65.3
06/29/2020 08:00 1.42 407.74 72.9 0.07 -- 65.2
06/29/2020 07:00 1.42 407.73 72.9 0.03 -- 65.2
06/29/2020 06:00 1.42 407.73 72.9 0.06 -- 65.5
06/29/2020 05:00 1.42 407.72 72.9 0.00 -- 66.0
06/29/2020 04:00 1.42 407.71 72.9 0.01 -- 66.6
06/29/2020 03:00 1.42 407.72 72.9 0.01 -- 66.8
06/29/2020 02:00 1.42 407.72 72.9 0.07 -- 67.0
06/29/2020 01:00 1.42 407.71 72.9 0.03 -- 66.7
06/29/2020 00:00 1.42 407.70 72.9 0.01 0.81 66.4
06/28/2020 23:00 1.42 407.71 72.9 0.07 -- 67.1
06/28/2020 22:00 1.41 407.70 71.8 0.02 -- 67.7
06/28/2020 21:00 1.41 407.69 71.8 0.11 -- 68.9
06/28/2020 20:00 1.41 407.68 71.8 0.00 -- 71.6
06/28/2020 19:00 1.41 407.66 71.8 0.01 -- 71.8
06/28/2020 18:00 1.42 407.68 72.9 0.00 -- 74.9
06/28/2020 17:00 1.42 407.70 72.9 0.00 -- 81.0
06/28/2020 16:00 1.42 407.71 72.9 0.00 -- 81.4
06/28/2020 15:00 1.42 407.70 72.9 0.00 -- 80.1
06/28/2020 14:00 1.42 407.69 72.9 0.00 -- 80.9
06/28/2020 13:00 1.42 407.69 72.9 0.00 -- 79.4
06/28/2020 12:00 1.42 407.69 72.9 0.00 -- 78.6
06/28/2020 11:00 1.42 407.69 72.9 0.00 -- 75.8
06/28/2020 10:00 1.41 407.68 71.8 0.00 -- 72.8
06/28/2020 09:00 1.41 407.69 71.8 0.00 -- 67.6
06/28/2020 08:00 1.41 407.68 71.8 0.00 -- 63.3
06/28/2020 07:00 1.41 407.68 71.8 0.00 -- 58.1
06/28/2020 06:00 1.41 407.68 71.8 0.00 -- 57.7
06/28/2020 05:00 1.41 407.68 71.8 0.00 -- 58.8
06/28/2020 04:00 1.41 407.68 71.8 0.00 -- 59.9
06/28/2020 03:00 1.41 407.68 71.8 0.00 -- 61.6
06/28/2020 02:00 1.41 407.67 71.8 0.00 -- 63.2
06/28/2020 01:00 1.41 407.68 71.8 0.00 -- 66.3
06/28/2020 00:00 1.41 407.67 71.8 0.00 0.22 67.2
06/27/2020 23:00 1.41 407.67 71.8 0.00 -- 67.1
06/27/2020 22:00 1.41 407.67 71.8 0.00 -- 69.6
06/27/2020 21:00 1.41 407.68 71.8 0.00 -- 74.2
06/27/2020 20:00 1.41 407.67 71.8 0.00 -- 76.9
06/27/2020 19:00 1.41 407.68 71.8 0.00 -- 79.3
06/27/2020 18:00 1.41 407.68 71.8 0.00 -- 78.6
06/27/2020 17:00 -- -- -- -- -- 77.8
06/27/2020 16:00 -- -- -- -- -- 77.8
06/27/2020 15:00 -- -- -- -- -- 76.1
06/27/2020 14:00 -- -- -- -- -- 77.2
06/27/2020 13:00 -- -- -- -- -- 77.9
06/27/2020 12:00 -- -- -- -- -- 77.6
06/27/2020 11:00 -- -- -- -- -- 73.5
06/27/2020 10:00 -- -- -- -- -- 69.4
06/27/2020 09:00 -- -- -- -- -- 66.2
06/27/2020 08:00 -- -- -- -- -- 59.9
06/27/2020 07:00 -- -- -- -- -- 57.1
06/27/2020 06:00 -- -- -- -- -- 55.4
06/27/2020 05:00 -- -- -- -- -- 56.0
06/27/2020 04:00 -- -- -- -- -- 57.0
06/27/2020 03:00 -- -- -- -- -- 58.5
06/27/2020 02:00 -- -- -- -- -- 59.8
06/27/2020 01:00 -- -- -- -- -- 61.9
06/27/2020 00:00 -- -- -- -- 0.00 64.5